Time;durP1;ratioP1;P1;durP2;ratioP2;P2;SDS_P1;SDS_P2;PMS_P1;PMS_P2;Temp;Humidity;BMP_temperature;BMP_pressure;BME280_temperature;BME280_humidity;BME280_pressure;Samples;Min_cycle;Max_cycle;Signal;HPM_P1;HPM_P2
2022/03/28 00:01:12;;;;;;;12.20;7.18;;;6.00;99.90;;;;;;5078509;28;20040;-67
2022/03/28 00:03:40;;;;;;;17.67;7.82;;;6.00;99.90;;;;;;5071494;28;20045;-67
2022/03/28 00:06:09;;;;;;;14.25;7.35;;;5.90;99.90;;;;;;5072125;28;20047;-66
2022/03/28 00:08:36;;;;;;;11.73;6.68;;;6.00;99.90;;;;;;5066501;28;20029;-66
2022/03/28 00:11:02;;;;;;;22.70;7.93;;;6.10;99.90;;;;;;5064130;28;20398;-67
2022/03/28 00:13:28;;;;;;;15.73;8.82;;;6.00;99.90;;;;;;5046078;28;20076;-65
2022/03/28 00:15:53;;;;;;;17.40;8.10;;;5.90;99.90;;;;;;5053008;28;20490;-65
2022/03/28 00:18:19;;;;;;;16.40;9.25;;;5.90;99.90;;;;;;5053885;28;20079;-66
2022/03/28 00:20:47;;;;;;;15.15;8.90;;;5.90;99.90;;;;;;5053688;28;20044;-66
2022/03/28 00:23:13;;;;;;;16.08;9.30;;;5.90;99.90;;;;;;5079421;28;20048;-66
2022/03/28 00:25:40;;;;;;;11.52;7.68;;;5.90;99.90;;;;;;5063580;28;20052;-66
2022/03/28 00:28:06;;;;;;;20.73;8.93;;;6.00;99.90;;;;;;5070838;28;20446;-65
2022/03/28 00:30:32;;;;;;;17.48;8.85;;;6.00;99.90;;;;;;5071379;28;20494;-66
2022/03/28 00:32:59;;;;;;;16.77;7.40;;;5.80;99.90;;;;;;5067668;28;20033;-66
2022/03/28 00:35:25;;;;;;;16.52;8.15;;;5.80;99.90;;;;;;5078243;28;20094;-66
2022/03/28 00:37:51;;;;;;;14.50;7.10;;;5.80;99.90;;;;;;5070044;28;20040;-67
2022/03/28 00:40:17;;;;;;;13.18;7.60;;;5.80;99.90;;;;;;5071468;28;20119;-65
2022/03/28 00:42:43;;;;;;;9.98;7.05;;;5.70;99.90;;;;;;5069975;28;20043;-67
2022/03/28 00:45:09;;;;;;;14.18;7.53;;;5.70;99.90;;;;;;5070038;28;20060;-66
2022/03/28 00:47:35;;;;;;;13.55;7.05;;;5.70;99.90;;;;;;5052454;28;20078;-67
2022/03/28 00:50:02;;;;;;;10.77;5.93;;;5.70;99.90;;;;;;5071177;28;20039;-66
2022/03/28 00:52:28;;;;;;;10.82;6.40;;;5.60;99.90;;;;;;5070727;28;20048;-66
2022/03/28 00:54:54;;;;;;;12.40;6.88;;;5.60;99.90;;;;;;5069605;28;20115;-67
2022/03/28 00:57:20;;;;;;;13.52;6.55;;;5.60;99.90;;;;;;5070733;28;20044;-65
2022/03/28 00:59:45;;;;;;;12.43;7.18;;;5.60;99.90;;;;;;5070851;28;20045;-65
2022/03/28 01:02:11;;;;;;;11.45;5.90;;;5.60;99.90;;;;;;5079299;28;20119;-66
2022/03/28 01:04:37;;;;;;;10.85;6.35;;;5.60;99.90;;;;;;5059319;28;20505;-65
2022/03/28 01:07:06;;;;;;;13.60;6.72;;;5.60;99.90;;;;;;5070848;28;20033;-65
2022/03/28 01:09:32;;;;;;;14.40;6.97;;;5.60;99.90;;;;;;5062561;28;20040;-66
2022/03/28 01:11:59;;;;;;;13.35;7.13;;;5.60;99.90;;;;;;5065796;28;20127;-65
2022/03/28 01:14:26;;;;;;;12.77;6.97;;;5.60;99.90;;;;;;5070847;28;20040;-65
2022/03/28 01:19:36;;;;;;;14.60;7.25;;;5.60;99.90;;;;;;5058716;28;20053;-66
2022/03/28 01:22:01;;;;;;;11.90;6.53;;;5.60;99.90;;;;;;5069984;28;20051;-66
2022/03/28 01:24:27;;;;;;;18.95;7.43;;;5.60;99.90;;;;;;5053151;28;20529;-65
2022/03/28 01:26:54;;;;;;;18.80;7.90;;;5.70;99.90;;;;;;5057239;28;20049;-66
2022/03/28 01:29:20;;;;;;;15.63;7.80;;;5.70;99.90;;;;;;5069309;28;20044;-67
2022/03/28 01:31:45;;;;;;;18.27;8.07;;;5.70;99.90;;;;;;5050305;28;20036;-66
2022/03/28 01:34:19;;;;;;;11.85;7.30;;;5.60;99.90;;;;;;5069266;28;20068;-66
2022/03/28 01:36:47;;;;;;;19.77;8.82;;;5.60;99.90;;;;;;5031012;28;21686;-67
2022/03/28 01:39:17;;;;;;;14.65;7.85;;;5.60;99.90;;;;;;5068984;28;20150;-65
2022/03/28 01:41:43;;;;;;;18.70;8.90;;;5.70;99.90;;;;;;5063440;28;20059;-67
2022/03/28 01:44:10;;;;;;;19.60;8.80;;;5.70;99.90;;;;;;5063126;28;20355;-65
2022/03/28 01:46:44;;;;;;;15.68;8.52;;;5.70;99.90;;;;;;5072986;28;21709;-67
2022/03/28 01:49:11;;;;;;;17.25;9.18;;;5.60;99.90;;;;;;5071639;28;20037;-66
2022/03/28 01:51:39;;;;;;;16.40;8.48;;;5.80;99.90;;;;;;5074139;28;20068;-65
2022/03/28 01:54:05;;;;;;;18.73;8.38;;;5.70;99.90;;;;;;5055469;28;20562;-67
2022/03/28 01:56:34;;;;;;;21.55;9.20;;;5.80;99.90;;;;;;5074358;28;20086;-66
2022/03/28 01:59:00;;;;;;;16.52;9.43;;;5.70;99.90;;;;;;5078760;28;20387;-65
2022/03/28 02:01:26;;;;;;;17.00;8.45;;;5.70;99.90;;;;;;5076284;28;20098;-67
2022/03/28 02:03:51;;;;;;;20.98;9.13;;;5.70;99.90;;;;;;5071930;28;20044;-66
2022/03/28 02:06:17;;;;;;;17.42;8.25;;;5.60;99.90;;;;;;5074387;28;20037;-66
2022/03/28 02:08:42;;;;;;;14.68;7.78;;;5.60;99.90;;;;;;5072424;28;20120;-65
2022/03/28 02:11:08;;;;;;;14.48;7.53;;;5.60;99.90;;;;;;5056104;28;20062;-67
2022/03/28 02:13:34;;;;;;;12.40;6.82;;;5.60;99.90;;;;;;5053039;28;20072;-66
2022/03/28 02:16:00;;;;;;;16.45;7.38;;;5.50;99.90;;;;;;5073321;28;20390;-66
2022/03/28 02:18:27;;;;;;;13.45;6.72;;;5.50;99.90;;;;;;5073389;28;20402;-65
2022/03/28 02:20:53;;;;;;;10.63;5.75;;;5.50;99.90;;;;;;5072307;28;20045;-66
2022/03/28 02:23:19;;;;;;;14.30;6.88;;;5.60;99.90;;;;;;5074266;28;20036;-66
2022/03/28 02:25:44;;;;;;;17.58;7.22;;;5.50;99.90;;;;;;5073024;28;20063;-65
2022/03/28 02:28:11;;;;;;;15.40;8.40;;;5.40;99.90;;;;;;5069787;28;20037;-65
2022/03/28 02:30:37;;;;;;;14.70;8.07;;;5.80;99.90;;;;;;5067453;28;20044;-65
2022/03/28 02:33:03;;;;;;;14.88;8.20;;;5.50;99.90;;;;;;5072722;28;20036;-65
2022/03/28 02:35:29;;;;;;;15.90;7.78;;;5.30;99.90;;;;;;5053020;28;20036;-66
2022/03/28 02:37:57;;;;;;;14.63;8.05;;;5.30;99.90;;;;;;5056056;28;20032;-66
2022/03/28 02:40:23;;;;;;;16.33;8.95;;;5.30;99.90;;;;;;5072689;28;20390;-65
2022/03/28 02:42:48;;;;;;;13.43;7.97;;;5.30;99.90;;;;;;5070688;28;20042;-66
2022/03/28 02:45:14;;;;;;;23.85;8.57;;;5.30;99.90;;;;;;5067442;28;20052;-65
2022/03/28 02:47:40;;;;;;;20.45;7.78;;;5.30;99.90;;;;;;5072554;28;20064;-66
2022/03/28 02:50:09;;;;;;;16.77;8.05;;;5.20;99.90;;;;;;5070330;28;20051;-66
2022/03/28 02:52:34;;;;;;;15.23;8.80;;;5.20;99.90;;;;;;5073518;28;20044;-65
2022/03/28 02:55:00;;;;;;;20.55;8.00;;;5.20;99.90;;;;;;5054087;28;20378;-66
2022/03/28 02:57:26;;;;;;;22.35;7.75;;;5.20;99.90;;;;;;5054672;28;20105;-66
2022/03/28 02:59:51;;;;;;;15.65;6.90;;;5.20;99.90;;;;;;5071258;28;20051;-66
2022/03/28 03:02:17;;;;;;;14.05;5.75;;;5.20;99.90;;;;;;5071598;28;20121;-66
2022/03/28 03:04:42;;;;;;;18.58;7.25;;;5.20;99.90;;;;;;5068892;28;20076;-65
2022/03/28 03:07:08;;;;;;;9.45;5.15;;;5.20;99.90;;;;;;5054671;28;20029;-68
2022/03/28 03:09:34;;;;;;;24.10;6.05;;;5.20;99.90;;;;;;5072803;28;20143;-66
2022/03/28 03:11:59;;;;;;;36.20;6.45;;;5.50;99.90;;;;;;5054404;28;20036;-67
2022/03/28 03:14:25;;;;;;;9.57;4.95;;;5.10;99.90;;;;;;5071774;28;20131;-67
2022/03/28 03:16:51;;;;;;;16.02;5.57;;;5.10;99.90;;;;;;5072851;28;20041;-67
2022/03/28 03:19:17;;;;;;;10.02;5.63;;;5.10;99.90;;;;;;5072859;28;20048;-65
2022/03/28 03:21:43;;;;;;;7.65;4.50;;;5.20;99.90;;;;;;5053007;28;20074;-66
2022/03/28 03:24:08;;;;;;;9.43;5.28;;;5.20;99.90;;;;;;5055177;28;20043;-66
2022/03/28 03:26:34;;;;;;;13.38;5.28;;;5.20;99.90;;;;;;5054156;28;20084;-67
2022/03/28 03:29:00;;;;;;;11.32;6.30;;;5.10;99.90;;;;;;5072049;28;20054;-66
2022/03/28 03:31:26;;;;;;;14.65;6.50;;;5.10;99.90;;;;;;5072454;28;20492;-65
2022/03/28 03:33:51;;;;;;;13.27;5.93;;;5.00;99.90;;;;;;5054508;28;20047;-66
2022/03/28 03:36:17;;;;;;;14.77;5.18;;;5.00;99.90;;;;;;5072927;28;20093;-66
2022/03/28 03:38:43;;;;;;;24.80;6.78;;;5.00;99.90;;;;;;5042878;28;20078;-67
2022/03/28 03:41:09;;;;;;;12.52;5.93;;;5.10;99.90;;;;;;5064930;28;20036;-66
2022/03/28 03:43:34;;;;;;;12.85;6.47;;;5.00;99.90;;;;;;5057842;28;20044;-66
2022/03/28 03:46:00;;;;;;;13.52;6.22;;;5.00;99.90;;;;;;5062832;28;20060;-67
2022/03/28 03:48:27;;;;;;;16.45;5.85;;;5.00;99.90;;;;;;5060518;28;20394;-66
2022/03/28 03:50:53;;;;;;;19.63;5.60;;;5.00;99.90;;;;;;5070753;28;20044;-66
2022/03/28 03:53:20;;;;;;;9.82;5.00;;;5.00;99.90;;;;;;5055072;28;20051;-66
2022/03/28 03:55:46;;;;;;;14.50;5.32;;;5.00;99.90;;;;;;5054999;28;20180;-67
2022/03/28 03:58:13;;;;;;;11.48;4.97;;;5.00;99.90;;;;;;5072713;28;20041;-65
2022/03/28 04:00:39;;;;;;;8.20;4.40;;;5.00;99.90;;;;;;5069865;28;20128;-66
2022/03/28 04:03:05;;;;;;;8.50;4.18;;;5.00;99.90;;;;;;5068903;28;20033;-66
2022/03/28 04:05:32;;;;;;;8.48;4.28;;;5.00;99.90;;;;;;5037137;28;20512;-65
2022/03/28 04:07:59;;;;;;;7.47;3.80;;;5.00;99.90;;;;;;5070713;28;20044;-66
2022/03/28 04:10:26;;;;;;;7.82;4.22;;;5.10;99.90;;;;;;5054215;28;20123;-66
2022/03/28 04:12:52;;;;;;;6.90;3.42;;;5.00;99.90;;;;;;5053106;28;20171;-65
2022/03/28 04:15:18;;;;;;;8.05;3.88;;;5.50;99.90;;;;;;5065449;28;20127;-66
2022/03/28 04:17:45;;;;;;;7.15;3.65;;;5.10;99.90;;;;;;5045696;28;20041;-65
2022/03/28 04:20:13;;;;;;;8.05;3.75;;;5.10;99.90;;;;;;5070423;28;20044;-66
2022/03/28 04:22:40;;;;;;;8.05;3.42;;;5.00;99.90;;;;;;5071616;28;20071;-65
2022/03/28 04:25:07;;;;;;;4.67;2.77;;;4.90;99.90;;;;;;5071757;28;20036;-66
2022/03/28 04:27:34;;;;;;;5.50;2.70;;;4.90;99.90;;;;;;5070129;28;20071;-66
2022/03/28 04:29:59;;;;;;;5.60;2.58;;;4.90;99.90;;;;;;5044098;28;20080;-66
2022/03/28 04:32:25;;;;;;;5.95;2.38;;;6.30;99.90;;;;;;5070626;28;20076;-65
2022/03/28 04:34:52;;;;;;;5.00;2.65;;;4.90;99.90;;;;;;5053390;28;20124;-66
2022/03/28 04:37:18;;;;;;;5.68;2.60;;;4.90;99.90;;;;;;5071572;28;20062;-65
2022/03/28 04:39:44;;;;;;;5.15;2.45;;;4.90;99.90;;;;;;5040978;28;20119;-65
2022/03/28 04:42:09;;;;;;;4.68;2.53;;;4.80;99.90;;;;;;5063598;28;20040;-66
2022/03/28 04:44:35;;;;;;;6.25;3.15;;;4.90;99.90;;;;;;5071193;28;20037;-66
2022/03/28 04:47:01;;;;;;;5.05;2.80;;;4.90;99.90;;;;;;5070540;28;20119;-69
2022/03/28 04:49:26;;;;;;;5.07;3.15;;;4.80;99.90;;;;;;5053092;28;20056;-66
2022/03/28 04:51:52;;;;;;;6.55;3.80;;;4.80;99.90;;;;;;5070416;28;20045;-65
2022/03/28 04:54:17;;;;;;;5.32;2.95;;;4.80;99.90;;;;;;5053477;28;20052;-65
2022/03/28 04:56:43;;;;;;;6.13;3.47;;;4.80;99.90;;;;;;5070225;28;20044;-67
2022/03/28 04:59:10;;;;;;;9.52;3.60;;;4.80;99.90;;;;;;5063838;28;20557;-66
2022/03/28 05:01:36;;;;;;;8.02;4.68;;;4.80;99.90;;;;;;5071390;28;20048;-66
2022/03/28 05:04:02;;;;;;;10.95;4.80;;;4.80;99.90;;;;;;5062577;28;20048;-65
2022/03/28 05:06:27;;;;;;;9.23;5.18;;;4.70;99.90;;;;;;5063662;28;20079;-66
2022/03/28 05:08:53;;;;;;;11.02;6.63;;;4.70;99.90;;;;;;5067573;28;20052;-66
2022/03/28 05:11:22;;;;;;;12.75;6.00;;;4.70;99.90;;;;;;5046999;28;20080;-66
2022/03/28 05:13:51;;;;;;;17.27;8.13;;;5.00;99.90;;;;;;5062376;28;20054;-66
2022/03/28 05:16:17;;;;;;;14.75;7.72;;;4.80;99.90;;;;;;5065077;28;20131;-67
2022/03/28 05:18:43;;;;;;;13.68;7.65;;;5.30;99.90;;;;;;5057436;28;20058;-65
2022/03/28 05:21:09;;;;;;;11.98;6.28;;;4.80;99.90;;;;;;5065006;28;20123;-66
2022/03/28 05:23:35;;;;;;;16.00;7.85;;;4.90;99.90;;;;;;5066014;28;20457;-65
2022/03/28 05:26:02;;;;;;;17.40;7.85;;;4.80;99.90;;;;;;5064359;28;20037;-66
2022/03/28 05:28:28;;;;;;;16.40;7.53;;;4.90;99.90;;;;;;5060447;28;20086;-66
2022/03/28 05:30:57;;;;;;;13.45;7.82;;;4.90;99.90;;;;;;5066239;28;20037;-66
2022/03/28 05:33:23;;;;;;;11.93;7.43;;;4.90;99.90;;;;;;5068835;28;20044;-66
2022/03/28 05:35:49;;;;;;;13.27;7.60;;;4.90;99.90;;;;;;5065595;28;20445;-66
2022/03/28 05:38:15;;;;;;;14.98;7.55;;;4.90;99.90;;;;;;5067169;28;20501;-66
2022/03/28 05:40:41;;;;;;;16.02;8.00;;;4.90;99.90;;;;;;5066544;28;20055;-66
2022/03/28 05:43:07;;;;;;;17.52;9.27;;;4.90;99.90;;;;;;5059344;28;20087;-66
2022/03/28 05:45:36;;;;;;;15.48;8.65;;;5.00;99.90;;;;;;5050090;28;20056;-66
2022/03/28 05:48:01;;;;;;;14.70;7.60;;;5.00;99.90;;;;;;5061323;28;20056;-66
2022/03/28 05:50:27;;;;;;;18.38;8.80;;;5.00;99.90;;;;;;5049195;28;20041;-67
2022/03/28 05:52:54;;;;;;;23.65;8.95;;;5.00;99.90;;;;;;5045376;28;20060;-68
2022/03/28 05:55:21;;;;;;;16.90;9.45;;;5.10;99.90;;;;;;5053154;28;20397;-66
2022/03/28 05:57:46;;;;;;;20.33;8.70;;;5.10;99.90;;;;;;5049331;28;20059;-66
2022/03/28 06:00:14;;;;;;;16.65;8.65;;;5.00;99.90;;;;;;5064285;28;20040;-66
2022/03/28 06:02:44;;;;;;;15.50;9.70;;;5.00;99.90;;;;;;5063319;28;20510;-66
2022/03/28 06:05:11;;;;;;;15.15;9.50;;;5.00;99.90;;;;;;5062840;28;20378;-66
2022/03/28 06:07:37;;;;;;;16.27;10.73;;;5.00;99.90;;;;;;5047537;28;20147;-66
2022/03/28 06:10:06;;;;;;;15.00;9.52;;;5.00;99.90;;;;;;5042372;28;20051;-66
2022/03/28 06:12:32;;;;;;;17.77;10.55;;;5.00;99.90;;;;;;5072680;28;20565;-67
2022/03/28 06:14:57;;;;;;;16.77;9.88;;;5.10;99.90;;;;;;5062674;28;20356;-67
2022/03/28 06:17:24;;;;;;;14.23;9.98;;;5.10;99.90;;;;;;5064283;28;20051;-66
2022/03/28 06:19:50;;;;;;;20.02;12.20;;;5.10;99.90;;;;;;5073856;28;20040;-66
2022/03/28 06:22:17;;;;;;;19.17;11.45;;;5.20;99.90;;;;;;5055763;28;20044;-67
2022/03/28 06:24:43;;;;;;;15.60;9.52;;;5.10;99.90;;;;;;5069303;28;20036;-67
2022/03/28 06:27:09;;;;;;;13.65;9.43;;;5.10;99.90;;;;;;5069646;28;20040;-67
2022/03/28 06:29:34;;;;;;;19.25;10.15;;;5.10;99.90;;;;;;5070534;28;20051;-67
2022/03/28 06:32:00;;;;;;;15.55;10.35;;;5.10;99.90;;;;;;5058116;28;20943;-65
2022/03/28 06:34:26;;;;;;;16.67;10.18;;;5.10;99.90;;;;;;5064582;28;20063;-66
2022/03/28 06:36:51;;;;;;;14.35;10.07;;;5.20;99.90;;;;;;5066859;28;20102;-67
2022/03/28 06:39:17;;;;;;;19.33;10.80;;;5.20;99.90;;;;;;5072665;28;20040;-66
2022/03/28 06:41:42;;;;;;;13.95;9.00;;;5.20;99.90;;;;;;5070560;28;20044;-67
2022/03/28 06:44:11;;;;;;;18.02;10.65;;;5.20;99.90;;;;;;5069399;28;20040;-68
2022/03/28 06:46:39;;;;;;;23.58;11.13;;;5.30;99.90;;;;;;5071164;28;20056;-67
2022/03/28 06:49:08;;;;;;;16.77;11.40;;;5.20;99.90;;;;;;5050025;28;20043;-67
2022/03/28 06:51:35;;;;;;;18.85;12.02;;;5.30;99.90;;;;;;5074708;28;20407;-67
2022/03/28 06:54:03;;;;;;;17.25;10.98;;;5.30;99.90;;;;;;5073672;28;20469;-67
2022/03/28 06:56:31;;;;;;;17.63;11.73;;;5.40;99.90;;;;;;5076154;28;20397;-67
2022/03/28 06:58:57;;;;;;;18.75;12.77;;;5.50;99.90;;;;;;5061541;28;20040;-68
2022/03/28 07:01:23;;;;;;;21.90;13.82;;;5.50;99.90;;;;;;5075388;28;20033;-66
2022/03/28 07:03:48;;;;;;;22.35;14.10;;;5.50;99.90;;;;;;5054504;28;20134;-66
2022/03/28 07:06:14;;;;;;;21.45;14.25;;;5.50;99.90;;;;;;5058763;28;20406;-66
2022/03/28 07:08:40;;;;;;;21.67;14.50;;;5.50;99.90;;;;;;5068656;28;20075;-66
2022/03/28 07:11:06;;;;;;;26.42;14.77;;;5.60;99.90;;;;;;5057823;28;20127;-67
2022/03/28 07:13:31;;;;;;;30.17;16.20;;;5.60;99.90;;;;;;5073763;28;20056;-68
2022/03/28 07:15:57;;;;;;;28.25;16.65;;;5.60;99.90;;;;;;5062029;28;20041;-67
2022/03/28 07:18:25;;;;;;;27.83;16.65;;;5.70;99.90;;;;;;5073999;28;20072;-67
2022/03/28 07:20:51;;;;;;;27.42;16.27;;;5.70;99.90;;;;;;5073866;28;20040;-67
2022/03/28 07:23:17;;;;;;;32.17;16.85;;;5.70;99.90;;;;;;5072987;28;20048;-66
2022/03/28 07:25:43;;;;;;;30.77;17.25;;;5.70;99.90;;;;;;5056494;28;20093;-71
2022/03/28 07:28:10;;;;;;;25.17;14.65;;;5.70;99.90;;;;;;5070874;28;20176;-68
2022/03/28 07:30:37;;;;;;;26.83;15.95;;;5.80;99.90;;;;;;5042964;28;20450;-67
2022/03/28 07:33:03;;;;;;;25.17;15.13;;;5.80;99.90;;;;;;5063689;28;20045;-67
2022/03/28 07:35:31;;;;;;;26.38;16.33;;;5.90;99.90;;;;;;5051080;28;20530;-65
2022/03/28 07:37:57;;;;;;;28.35;18.02;;;5.90;99.90;;;;;;5055186;28;20048;-66
2022/03/28 07:40:23;;;;;;;31.35;18.63;;;6.00;99.90;;;;;;5072483;28;20036;-69
2022/03/28 07:42:48;;;;;;;31.75;18.27;;;6.00;99.90;;;;;;5072371;28;20044;-66
2022/03/28 07:45:14;;;;;;;31.30;19.17;;;6.10;99.90;;;;;;5069073;28;20080;-71
2022/03/28 07:47:41;;;;;;;35.15;22.33;;;6.00;99.90;;;;;;5077537;28;20047;-67
2022/03/28 07:50:08;;;;;;;41.13;22.88;;;6.60;99.90;;;;;;5071652;28;20052;-68
2022/03/28 07:52:34;;;;;;;35.40;21.73;;;6.10;99.90;;;;;;5051202;28;20033;-68
2022/03/28 07:55:00;;;;;;;29.40;19.67;;;6.20;99.90;;;;;;5055947;28;20056;-68
2022/03/28 07:57:26;;;;;;;28.70;18.95;;;6.20;99.90;;;;;;5064949;28;20119;-67
2022/03/28 07:59:52;;;;;;;30.60;19.02;;;6.20;99.90;;;;;;5064314;28;20406;-68
2022/03/28 08:02:18;;;;;;;25.17;16.88;;;6.30;99.90;;;;;;5038455;28;20045;-68
2022/03/28 08:04:45;;;;;;;27.00;17.02;;;6.30;99.90;;;;;;5052849;28;20360;-68
2022/03/28 08:07:11;;;;;;;29.52;19.50;;;6.40;99.90;;;;;;5050916;28;20044;-67
2022/03/28 08:09:38;;;;;;;30.17;20.48;;;6.50;99.90;;;;;;5072630;28;20063;-68
2022/03/28 08:12:09;;;;;;;32.85;19.52;;;6.40;99.90;;;;;;5070655;28;20051;-67
2022/03/28 08:14:35;;;;;;;26.95;17.88;;;6.40;99.90;;;;;;5065452;28;20080;-67
2022/03/28 08:17:01;;;;;;;26.08;17.33;;;6.40;99.90;;;;;;5070080;28;20402;-66
2022/03/28 08:19:27;;;;;;;29.08;18.63;;;6.50;99.90;;;;;;5072571;28;20040;-67
2022/03/28 08:21:53;;;;;;;22.85;15.18;;;6.50;99.90;;;;;;5068635;28;20105;-68
2022/03/28 08:24:18;;;;;;;22.83;15.10;;;6.50;99.90;;;;;;5068369;28;20041;-68
2022/03/28 08:26:46;;;;;;;26.67;16.08;;;6.50;99.90;;;;;;5070196;28;20537;-67
2022/03/28 08:29:11;;;;;;;24.63;16.40;;;6.60;99.90;;;;;;5069339;28;20048;-66
2022/03/28 08:31:37;;;;;;;19.88;12.57;;;6.60;99.90;;;;;;5068710;28;20455;-68
2022/03/28 08:34:03;;;;;;;20.00;12.90;;;6.60;99.90;;;;;;5069820;28;20107;-67
2022/03/28 08:36:29;;;;;;;25.58;13.90;;;6.70;99.90;;;;;;5067186;28;20067;-67
2022/03/28 08:38:54;;;;;;;20.80;14.20;;;6.70;99.90;;;;;;5051352;28;20059;-68
2022/03/28 08:41:25;;;;;;;22.90;13.82;;;6.70;99.90;;;;;;5067717;28;20032;-68
2022/03/28 08:43:51;;;;;;;20.83;13.73;;;6.90;99.90;;;;;;5036805;28;20040;-67
2022/03/28 08:46:17;;;;;;;27.52;14.70;;;6.80;99.90;;;;;;5066604;28;20060;-68
2022/03/28 08:48:43;;;;;;;23.60;15.27;;;8.60;99.90;;;;;;5068281;28;20422;-67
2022/03/28 08:51:10;;;;;;;23.45;14.60;;;6.80;99.90;;;;;;5052823;28;20048;-67
2022/03/28 08:53:39;;;;;;;23.30;15.02;;;6.90;99.90;;;;;;5052005;28;20516;-68
2022/03/28 08:56:07;;;;;;;22.05;14.25;;;7.00;99.90;;;;;;5069702;28;20490;-68
2022/03/28 08:58:34;;;;;;;24.00;14.70;;;7.00;99.90;;;;;;5048849;28;20037;-67
2022/03/28 09:01:02;;;;;;;21.48;14.45;;;7.10;99.90;;;;;;5068973;28;20468;-68
2022/03/28 09:03:47;;;;;;;20.75;14.20;;;7.10;99.90;;;;;;5052878;28;20048;-67
2022/03/28 09:06:37;;;;;;;21.45;15.18;;;7.10;99.90;;;;;;5064150;28;20097;-67
2022/03/28 09:09:31;;;;;;;22.30;15.15;;;7.20;99.90;;;;;;5069422;28;20052;-66
2022/03/28 09:12:04;;;;;;;22.35;14.93;;;7.30;99.90;;;;;;5067734;28;20395;-67
2022/03/28 09:14:34;;;;;;;24.20;15.15;;;8.30;99.90;;;;;;5065773;28;20051;-69
2022/03/28 09:17:05;;;;;;;23.05;14.93;;;7.40;99.90;;;;;;5071655;28;20048;-69
2022/03/28 09:19:49;;;;;;;25.08;15.20;;;7.40;99.90;;;;;;5056377;28;20040;-68
2022/03/28 09:22:19;;;;;;;20.55;14.30;;;7.50;99.90;;;;;;5038126;28;20049;-67
2022/03/28 09:24:46;;;;;;;20.45;14.98;;;7.70;99.90;;;;;;5069841;28;20074;-67
2022/03/28 09:27:24;;;;;;;24.83;15.43;;;7.60;99.90;;;;;;5040935;28;20509;-69
2022/03/28 09:29:53;;;;;;;24.17;14.60;;;7.60;99.90;;;;;;5070213;28;20044;-68
2022/03/28 09:32:23;;;;;;;23.80;15.27;;;7.70;99.90;;;;;;5072942;28;20097;-67
2022/03/28 09:35:08;;;;;;;21.10;14.88;;;7.70;99.90;;;;;;5069266;28;20454;-68
2022/03/28 09:37:51;;;;;;;21.17;14.75;;;7.80;99.90;;;;;;5057405;28;20049;-68
2022/03/28 09:40:30;;;;;;;25.85;14.73;;;7.80;99.90;;;;;;5055014;28;20032;-68
2022/03/28 09:42:57;;;;;;;20.05;12.68;;;7.90;99.90;;;;;;5069786;28;20052;-70
2022/03/28 09:45:45;;;;;;;22.10;14.48;;;8.00;99.90;;;;;;5070552;28;20052;-68
2022/03/28 09:48:12;;;;;;;19.63;13.05;;;7.90;99.90;;;;;;5051477;28;20040;-68
2022/03/28 09:50:49;;;;;;;21.30;13.88;;;8.20;99.90;;;;;;5058571;28;20049;-69
2022/03/28 09:53:27;;;;;;;18.70;13.07;;;8.00;99.90;;;;;;5064395;28;20045;-67
2022/03/28 09:55:59;;;;;;;19.20;13.57;;;8.00;99.90;;;;;;5070700;28;20041;-69
2022/03/28 09:58:48;;;;;;;28.67;14.20;;;8.00;99.90;;;;;;5046999;28;20059;-69
2022/03/28 10:01:21;;;;;;;24.95;14.77;;;8.10;99.90;;;;;;5069021;28;20040;-68
2022/03/28 10:03:49;;;;;;;22.63;13.90;;;8.10;99.90;;;;;;5050814;28;20105;-68
2022/03/28 10:06:16;;;;;;;19.67;13.38;;;8.20;99.90;;;;;;5077985;28;20079;-66
2022/03/28 10:08:43;;;;;;;21.17;13.73;;;8.30;99.90;;;;;;5058191;28;20103;-67
2022/03/28 10:11:10;;;;;;;19.40;13.55;;;8.40;99.90;;;;;;5061162;28;20124;-67
2022/03/28 10:13:36;;;;;;;20.20;13.38;;;8.30;99.90;;;;;;5056704;28;20105;-67
2022/03/28 10:16:04;;;;;;;18.40;12.75;;;8.30;99.90;;;;;;5072275;28;20510;-67
2022/03/28 10:18:32;;;;;;;22.25;14.10;;;8.40;99.90;;;;;;5054606;28;20052;-67
2022/03/28 10:21:05;;;;;;;20.83;13.70;;;8.60;99.90;;;;;;5057840;28;20048;-69
2022/03/28 10:24:05;;;;;;;23.52;13.95;;;8.90;99.90;;;;;;5065180;28;20041;-68
2022/03/28 10:26:34;;;;;;;21.23;13.47;;;8.90;99.90;;;;;;5073545;28;20048;-68
2022/03/28 10:29:00;;;;;;;18.55;13.20;;;8.90;99.90;;;;;;5068167;28;20598;-66
2022/03/28 10:31:26;;;;;;;18.55;13.82;;;9.10;99.90;;;;;;5055808;28;20044;-68
2022/03/28 10:33:54;;;;;;;24.02;14.48;;;9.20;99.90;;;;;;5052525;28;20044;-67
2022/03/28 10:36:24;;;;;;;20.98;14.35;;;9.30;99.90;;;;;;5050069;28;20494;-71
2022/03/28 10:38:51;;;;;;;21.38;13.77;;;9.30;99.90;;;;;;5041555;28;20494;-69
2022/03/28 10:41:18;;;;;;;18.95;13.55;;;9.20;99.90;;;;;;5069920;28;20036;-66
2022/03/28 10:43:45;;;;;;;20.15;13.60;;;9.30;99.90;;;;;;5072964;28;20033;-68
2022/03/28 10:46:12;;;;;;;23.02;13.73;;;9.50;99.90;;;;;;5071445;28;20051;-68
2022/03/28 10:48:41;;;;;;;20.42;13.80;;;9.40;99.90;;;;;;5073962;28;20052;-68
2022/03/28 10:51:18;;;;;;;19.58;14.25;;;9.50;99.90;;;;;;5065234;28;20052;-69
2022/03/28 10:53:56;;;;;;;23.08;14.18;;;9.60;99.90;;;;;;5072727;28;20051;-68
2022/03/28 10:56:29;;;;;;;24.67;14.87;;;9.60;99.90;;;;;;5057923;28;20429;-68
2022/03/28 10:59:00;;;;;;;21.90;14.10;;;9.70;99.90;;;;;;5053897;28;20768;-68
2022/03/28 11:01:32;;;;;;;23.63;14.48;;;9.80;99.90;;;;;;5073480;28;20056;-67
2022/03/28 11:04:15;;;;;;;23.92;14.88;;;9.90;99.90;;;;;;5050425;28;20482;-67
2022/03/28 11:07:06;;;;;;;22.17;15.05;;;10.10;99.90;;;;;;5072545;28;20066;-67
2022/03/28 11:09:32;;;;;;;19.50;13.50;;;10.10;99.90;;;;;;5072119;28;20044;-68
2022/03/28 11:12:04;;;;;;;22.27;14.10;;;10.20;99.90;;;;;;5070701;28;20098;-68
2022/03/28 11:14:40;;;;;;;20.45;13.65;;;10.20;99.90;;;;;;5073297;28;20481;-68
2022/03/28 11:17:23;;;;;;;20.20;13.70;;;10.40;99.90;;;;;;5059290;28;20087;-68
2022/03/28 11:20:11;;;;;;;19.95;14.32;;;10.30;99.90;;;;;;5063391;28;20150;-68
2022/03/28 11:23:09;;;;;;;21.42;14.27;;;10.20;99.90;;;;;;5054403;28;20103;-68
2022/03/28 11:25:54;;;;;;;23.40;14.27;;;10.30;99.90;;;;;;5046788;28;20052;-68
2022/03/28 11:28:24;;;;;;;17.05;13.63;;;10.40;99.90;;;;;;5056790;28;20140;-67
2022/03/28 11:30:55;;;;;;;18.75;13.57;;;10.60;99.90;;;;;;5081739;28;20051;-68
2022/03/28 11:33:28;;;;;;;20.23;12.98;;;10.80;99.90;;;;;;5064160;28;20513;-68
2022/03/28 11:36:02;;;;;;;19.30;14.00;;;11.00;99.90;;;;;;5063658;28;20102;-68
2022/03/28 11:38:30;;;;;;;21.55;13.25;;;11.00;99.90;;;;;;5058313;28;20060;-68
2022/03/28 11:40:56;;;;;;;;;;;11.40;99.90;;;;;;5061257;28;20131;-68
2022/03/28 11:43:32;;;;;;;23.77;14.40;;;11.40;99.90;;;;;;5047750;28;19925;-68
2022/03/28 11:45:59;;;;;;;16.33;13.02;;;11.60;99.90;;;;;;5054259;28;20045;-68
2022/03/28 11:48:26;;;;;;;18.83;13.82;;;11.50;99.90;;;;;;5068336;28;20052;-67
2022/03/28 11:50:53;;;;;;;19.27;13.40;;;11.60;99.90;;;;;;5070905;28;20123;-67
2022/03/28 11:53:19;;;;;;;20.20;14.60;;;11.30;99.90;;;;;;5059752;28;20053;-68
2022/03/28 11:55:49;;;;;;;21.25;14.15;;;11.40;99.90;;;;;;5065948;28;20041;-67
2022/03/28 11:58:16;;;;;;;27.15;13.20;;;11.40;99.90;;;;;;5062055;28;20059;-68
2022/03/28 12:00:45;;;;;;;22.55;13.45;;;11.50;99.90;;;;;;5067411;28;20133;-68
2022/03/28 12:03:12;;;;;;;18.08;13.60;;;11.70;99.90;;;;;;5068234;28;20044;-67
2022/03/28 12:05:57;;;;;;;18.65;12.80;;;12.40;99.90;;;;;;5041600;28;20063;-69
2022/03/28 12:08:23;;;;;;;19.13;13.63;;;12.80;99.90;;;;;;5067857;28;20080;-67
2022/03/28 12:10:52;;;;;;;21.25;12.57;;;13.20;99.90;;;;;;5064966;28;20090;-68
2022/03/28 12:13:24;;;;;;;15.50;12.02;;;13.40;99.90;;;;;;5068421;28;20467;-68
2022/03/28 12:15:52;;;;;;;17.65;12.02;;;13.50;99.90;;;;;;5063081;28;20053;-67
2022/03/28 12:18:20;;;;;;;15.75;12.82;;;13.40;99.90;;;;;;5064711;28;20044;-69
2022/03/28 12:20:48;;;;;;;14.90;11.98;;;13.10;99.90;;;;;;5049720;28;20086;-67
2022/03/28 12:23:14;;;;;;;;;;;13.30;99.90;;;;;;5068265;28;20052;-67
2022/03/28 12:25:44;;;;;;;17.60;10.98;;;13.10;99.90;;;;;;5066858;28;20002;-67
2022/03/28 12:28:15;;;;;;;16.05;11.55;;;13.10;99.90;;;;;;5066680;28;20418;-67
2022/03/28 12:30:49;;;;;;;15.73;10.70;;;13.00;99.90;;;;;;5068823;28;20090;-67
2022/03/28 12:33:26;;;;;;;15.00;10.82;;;13.30;99.90;;;;;;5066544;28;20117;-68
2022/03/28 12:35:59;;;;;;;17.75;10.63;;;13.10;99.90;;;;;;5068080;28;20418;-67
2022/03/28 12:38:39;;;;;;;17.85;11.15;;;13.20;99.90;;;;;;5051796;28;20048;-68
2022/03/28 12:41:13;;;;;;;13.38;10.00;;;13.50;99.90;;;;;;5063692;28;20044;-69
2022/03/28 12:43:45;;;;;;;13.18;9.35;;;13.80;99.90;;;;;;5068310;28;20097;-67
2022/03/28 12:46:11;;;;;;;14.40;9.48;;;14.50;99.90;;;;;;5055877;28;20084;-69
2022/03/28 12:48:47;;;;;;;9.65;8.65;;;14.90;99.90;;;;;;5052464;28;20454;-68
2022/03/28 12:51:28;;;;;;;12.57;9.45;;;15.00;99.90;;;;;;5068460;28;20409;-68